KDPA/DPA METAR and TAF weather

Enter ICAO airport designator
Station Type Date Time Source
KDPA METAR 2020/03/28 20:52 UTC NOAA

KDPA 282052Z 11007KT 10SM -RA OVC110 15/13 A2961 RMK AO2 RAB1956 SLP028 P0000 60000 T01500133 56031


Station Type Date Time Source
KDPA Decoded METAR 2020/03/28 20:52 UTC NOAA

CHICAGO/WEST CH DUPAGE, IL, United States (KDPA) 41-54N 88-15W 230M
Mar 28, 2020 - 04:52 PM EDT / 2020.03.28 2052 UTC
Wind: from the ESE (110 degrees) at 8 MPH (7 KT):0
Visibility: 10 mile(s):0
Sky conditions: overcast
Weather: light rain
Precipitation last hour: A trace
Temperature: 59.0 F (15.0 C)
Dew Point: 55.9 F (13.3 C)
Relative Humidity: 89%
Pressure (altimeter): 29.61 in. Hg (1002 hPa)
Pressure tendency: 0.09 inches (3.1 hPa) lower than three hours ago
ob: KDPA 282052Z 11007KT 10SM -RA OVC110 15/13 A2961 RMK AO2 RAB1956 SLP028 P0000 60000 T01500133 56031
cycle: 21

Station Type Date Time Source
KDPA TAF 2020/03/28 18:51 UTC NOAA

TAF
AMD KDPA 281748Z 2818/2918 11008KT P6SM -SHRA VCTS OVC005CB
FM281815 10010KT P6SM SCT006 BKN012 OVC060
FM290000 12012G17KT 6SM -SHRA BR BKN007 OVC010 WS020/18045KT
TEMPO 2902/2904 21020G35KT 1SM +TSRA BKN010 OVC020CB
FM290400 21015G25KT P6SM SCT015 BKN050
FM290900 22020G32KT P6SM BKN020
FM291400 24024G35KT P6SM BKN025

Example: see airport list